Terminal Aerodrome Forecast
Issued by NWS Twin Cities, MN

Home | Current Version | Previous Version | Graphics & Text | Print | Product List | Glossary On
Versions: 1 2 3 4 5 6 7 8 9 10 11 12 13 14 15 16 17
000
FTUS43 KMPX 212320
TAFSTC
TAF
KSTC 212320Z 2200/2224 01010KT P6SM FEW250
     FM220600 07005KT P6SM SKC
     FM221600 13010KT P6SM SCT250
     FM222100 15012G21KT P6SM BKN120=

USA.gov is the U.S. government's official web portal to all federal, state and local government web resources and services.